sensor_id;sensor_type;location;lat;lon;timestamp;temperature;humidity
28835;DHT22;15969;51.536;11.884;2022-08-03T00:01:50;17.20;80.10
28835;DHT22;15969;51.536;11.884;2022-08-03T00:04:16;17.10;80.90
28835;DHT22;15969;51.536;11.884;2022-08-03T00:06:42;17.00;81.70
28835;DHT22;15969;51.536;11.884;2022-08-03T00:09:09;17.00;80.80
28835;DHT22;15969;51.536;11.884;2022-08-03T00:11:35;17.00;80.70
28835;DHT22;15969;51.536;11.884;2022-08-03T00:14:04;17.00;81.20
28835;DHT22;15969;51.536;11.884;2022-08-03T00:16:30;17.00;81.60
28835;DHT22;15969;51.536;11.884;2022-08-03T00:18:56;17.00;82.00
28835;DHT22;15969;51.536;11.884;2022-08-03T00:21:22;17.00;82.00
28835;DHT22;15969;51.536;11.884;2022-08-03T00:23:48;17.00;82.30
28835;DHT22;15969;51.536;11.884;2022-08-03T00:26:13;17.00;83.20
28835;DHT22;15969;51.536;11.884;2022-08-03T00:28:39;17.00;83.40
28835;DHT22;15969;51.536;11.884;2022-08-03T00:31:06;16.90;83.60
28835;DHT22;15969;51.536;11.884;2022-08-03T00:33:32;16.90;83.50
28835;DHT22;15969;51.536;11.884;2022-08-03T00:35:58;16.90;83.60
28835;DHT22;15969;51.536;11.884;2022-08-03T00:38:23;16.80;84.00
28835;DHT22;15969;51.536;11.884;2022-08-03T00:40:49;16.70;85.10
28835;DHT22;15969;51.536;11.884;2022-08-03T00:43:15;16.60;85.80
28835;DHT22;15969;51.536;11.884;2022-08-03T00:45:42;16.70;86.30
28835;DHT22;15969;51.536;11.884;2022-08-03T00:48:09;16.70;85.60
28835;DHT22;15969;51.536;11.884;2022-08-03T00:50:38;16.80;85.50
28835;DHT22;15969;51.536;11.884;2022-08-03T00:53:08;16.70;85.60
28835;DHT22;15969;51.536;11.884;2022-08-03T00:55:36;16.70;85.40
28835;DHT22;15969;51.536;11.884;2022-08-03T00:58:03;16.80;85.70
28835;DHT22;15969;51.536;11.884;2022-08-03T01:00:32;16.80;85.50
28835;DHT22;15969;51.536;11.884;2022-08-03T01:03:06;16.80;85.00
28835;DHT22;15969;51.536;11.884;2022-08-03T01:05:59;16.70;85.00
28835;DHT22;15969;51.536;11.884;2022-08-03T01:08:53;16.60;85.80
28835;DHT22;15969;51.536;11.884;2022-08-03T01:11:29;16.50;86.90
28835;DHT22;15969;51.536;11.884;2022-08-03T01:14:13;16.50;87.50
28835;DHT22;15969;51.536;11.884;2022-08-03T01:28:55;16.30;86.60
28835;DHT22;15969;51.536;11.884;2022-08-03T01:31:31;16.20;86.60
28835;DHT22;15969;51.536;11.884;2022-08-03T01:34:02;16.10;86.60
28835;DHT22;15969;51.536;11.884;2022-08-03T01:36:42;16.10;86.80
28835;DHT22;15969;51.536;11.884;2022-08-03T01:39:09;16.20;87.60
28835;DHT22;15969;51.536;11.884;2022-08-03T01:41:57;16.00;88.10
28835;DHT22;15969;51.536;11.884;2022-08-03T01:44:27;16.10;88.40
28835;DHT22;15969;51.536;11.884;2022-08-03T01:46:59;16.00;88.60
28835;DHT22;15969;51.536;11.884;2022-08-03T01:49:32;16.00;89.10
28835;DHT22;15969;51.536;11.884;2022-08-03T01:52:00;16.00;89.30
28835;DHT22;15969;51.536;11.884;2022-08-03T01:54:27;16.00;90.10
28835;DHT22;15969;51.536;11.884;2022-08-03T01:56:55;16.00;90.10
28835;DHT22;15969;51.536;11.884;2022-08-03T01:59:22;15.90;90.00
28835;DHT22;15969;51.536;11.884;2022-08-03T02:01:50;15.90;90.20
28835;DHT22;15969;51.536;11.884;2022-08-03T02:04:17;15.90;90.10
28835;DHT22;15969;51.536;11.884;2022-08-03T02:06:45;16.00;90.40
28835;DHT22;15969;51.536;11.884;2022-08-03T02:09:15;15.90;90.40
28835;DHT22;15969;51.536;11.884;2022-08-03T02:11:42;15.90;90.60
28835;DHT22;15969;51.536;11.884;2022-08-03T02:14:09;15.80;90.60
28835;DHT22;15969;51.536;11.884;2022-08-03T02:16:35;15.80;90.80
28835;DHT22;15969;51.536;11.884;2022-08-03T02:19:03;15.80;90.90
28835;DHT22;15969;51.536;11.884;2022-08-03T02:21:32;15.80;91.20
28835;DHT22;15969;51.536;11.884;2022-08-03T02:24:01;15.80;91.50
28835;DHT22;15969;51.536;11.884;2022-08-03T02:26:28;15.80;91.20
28835;DHT22;15969;51.536;11.884;2022-08-03T02:28:59;15.80;91.00
28835;DHT22;15969;51.536;11.884;2022-08-03T02:31:30;15.70;91.00
28835;DHT22;15969;51.536;11.884;2022-08-03T02:34:03;15.70;91.40
28835;DHT22;15969;51.536;11.884;2022-08-03T02:36:36;15.80;91.60
28835;DHT22;15969;51.536;11.884;2022-08-03T02:39:03;15.70;91.70
28835;DHT22;15969;51.536;11.884;2022-08-03T02:41:41;15.70;91.80
28835;DHT22;15969;51.536;11.884;2022-08-03T02:44:11;15.70;91.50
28835;DHT22;15969;51.536;11.884;2022-08-03T02:46:40;15.60;91.40
28835;DHT22;15969;51.536;11.884;2022-08-03T02:49:09;15.60;91.50
28835;DHT22;15969;51.536;11.884;2022-08-03T02:51:38;15.50;91.90
28835;DHT22;15969;51.536;11.884;2022-08-03T02:54:05;15.60;92.20
28835;DHT22;15969;51.536;11.884;2022-08-03T02:56:33;15.60;92.50
28835;DHT22;15969;51.536;11.884;2022-08-03T02:59:00;15.50;92.60
28835;DHT22;15969;51.536;11.884;2022-08-03T03:01:26;15.40;92.90
28835;DHT22;15969;51.536;11.884;2022-08-03T03:03:54;15.50;93.20
28835;DHT22;15969;51.536;11.884;2022-08-03T03:06:23;15.50;93.30
28835;DHT22;15969;51.536;11.884;2022-08-03T03:08:51;15.50;93.10
28835;DHT22;15969;51.536;11.884;2022-08-03T03:11:19;15.40;93.30
28835;DHT22;15969;51.536;11.884;2022-08-03T03:13:47;15.40;93.90
28835;DHT22;15969;51.536;11.884;2022-08-03T03:16:14;15.50;93.90
28835;DHT22;15969;51.536;11.884;2022-08-03T03:18:42;15.40;93.60
28835;DHT22;15969;51.536;11.884;2022-08-03T03:21:09;15.30;93.60
28835;DHT22;15969;51.536;11.884;2022-08-03T03:23:37;15.30;93.60
28835;DHT22;15969;51.536;11.884;2022-08-03T03:26:04;15.30;93.80
28835;DHT22;15969;51.536;11.884;2022-08-03T03:28:31;15.30;94.40
28835;DHT22;15969;51.536;11.884;2022-08-03T03:31:02;15.30;94.30
28835;DHT22;15969;51.536;11.884;2022-08-03T03:33:29;15.30;94.80
28835;DHT22;15969;51.536;11.884;2022-08-03T03:35:55;15.20;95.00
28835;DHT22;15969;51.536;11.884;2022-08-03T03:38:22;15.20;94.60
28835;DHT22;15969;51.536;11.884;2022-08-03T03:40:47;15.20;94.30
28835;DHT22;15969;51.536;11.884;2022-08-03T03:43:13;15.20;94.40
28835;DHT22;15969;51.536;11.884;2022-08-03T03:45:40;15.20;94.70
28835;DHT22;15969;51.536;11.884;2022-08-03T03:48:08;15.10;94.80
28835;DHT22;15969;51.536;11.884;2022-08-03T03:50:35;15.20;94.90
28835;DHT22;15969;51.536;11.884;2022-08-03T03:53:02;15.20;95.10
28835;DHT22;15969;51.536;11.884;2022-08-03T03:55:28;15.10;95.40
28835;DHT22;15969;51.536;11.884;2022-08-03T03:57:55;15.10;95.90
28835;DHT22;15969;51.536;11.884;2022-08-03T04:00:21;15.20;96.30
28835;DHT22;15969;51.536;11.884;2022-08-03T04:02:47;15.20;96.40
28835;DHT22;15969;51.536;11.884;2022-08-03T04:05:13;15.10;96.80
28835;DHT22;15969;51.536;11.884;2022-08-03T04:08:01;15.10;97.20
28835;DHT22;15969;51.536;11.884;2022-08-03T04:11:02;15.20;98.10
28835;DHT22;15969;51.536;11.884;2022-08-03T04:13:56;15.20;98.70
28835;DHT22;15969;51.536;11.884;2022-08-03T04:16:26;15.30;98.80
28835;DHT22;15969;51.536;11.884;2022-08-03T04:18:58;15.30;99.10
28835;DHT22;15969;51.536;11.884;2022-08-03T04:21:27;15.20;99.70
28835;DHT22;15969;51.536;11.884;2022-08-03T04:23:58;15.40;99.90
28835;DHT22;15969;51.536;11.884;2022-08-03T04:26:27;15.40;99.90
28835;DHT22;15969;51.536;11.884;2022-08-03T04:28:54;15.50;99.90
28835;DHT22;15969;51.536;11.884;2022-08-03T04:31:22;15.50;99.90
28835;DHT22;15969;51.536;11.884;2022-08-03T04:33:49;15.60;99.90
28835;DHT22;15969;51.536;11.884;2022-08-03T04:36:20;15.70;99.90
28835;DHT22;15969;51.536;11.884;2022-08-03T04:39:04;15.80;99.90
28835;DHT22;15969;51.536;11.884;2022-08-03T04:41:33;16.00;99.90
28835;DHT22;15969;51.536;11.884;2022-08-03T04:44:00;16.00;99.90
28835;DHT22;15969;51.536;11.884;2022-08-03T04:46:29;16.10;99.90
28835;DHT22;15969;51.536;11.884;2022-08-03T04:48:56;16.20;99.90
28835;DHT22;15969;51.536;11.884;2022-08-03T04:51:23;16.20;99.90
28835;DHT22;15969;51.536;11.884;2022-08-03T04:53:49;16.30;99.90
28835;DHT22;15969;51.536;11.884;2022-08-03T04:56:15;16.50;99.90
28835;DHT22;15969;51.536;11.884;2022-08-03T04:58:41;16.50;99.90
28835;DHT22;15969;51.536;11.884;2022-08-03T05:01:06;16.60;99.90
28835;DHT22;15969;51.536;11.884;2022-08-03T05:03:32;16.70;99.90
28835;DHT22;15969;51.536;11.884;2022-08-03T05:05:57;16.80;99.90
28835;DHT22;15969;51.536;11.884;2022-08-03T05:08:23;16.90;99.90
28835;DHT22;15969;51.536;11.884;2022-08-03T05:10:49;17.00;99.90
28835;DHT22;15969;51.536;11.884;2022-08-03T05:13:15;17.00;99.90
28835;DHT22;15969;51.536;11.884;2022-08-03T05:15:41;17.10;99.90
28835;DHT22;15969;51.536;11.884;2022-08-03T05:18:07;17.20;99.90
28835;DHT22;15969;51.536;11.884;2022-08-03T05:20:32;17.30;99.90
28835;DHT22;15969;51.536;11.884;2022-08-03T05:22:58;17.40;99.90
28835;DHT22;15969;51.536;11.884;2022-08-03T05:25:26;17.50;99.90
28835;DHT22;15969;51.536;11.884;2022-08-03T05:27:51;17.60;99.90
28835;DHT22;15969;51.536;11.884;2022-08-03T05:30:17;17.70;99.90
28835;DHT22;15969;51.536;11.884;2022-08-03T05:32:43;17.80;99.90
28835;DHT22;15969;51.536;11.884;2022-08-03T05:35:09;17.80;99.90
28835;DHT22;15969;51.536;11.884;2022-08-03T05:37:34;17.90;99.90
28835;DHT22;15969;51.536;11.884;2022-08-03T05:40:01;18.00;99.90
28835;DHT22;15969;51.536;11.884;2022-08-03T05:42:26;18.10;99.90
28835;DHT22;15969;51.536;11.884;2022-08-03T05:44:52;18.20;99.90
28835;DHT22;15969;51.536;11.884;2022-08-03T05:47:17;18.30;99.90
28835;DHT22;15969;51.536;11.884;2022-08-03T05:49:43;18.30;99.90
28835;DHT22;15969;51.536;11.884;2022-08-03T05:52:09;18.50;99.90
28835;DHT22;15969;51.536;11.884;2022-08-03T05:54:34;18.50;99.90
28835;DHT22;15969;51.536;11.884;2022-08-03T05:57:00;18.70;99.90
28835;DHT22;15969;51.536;11.884;2022-08-03T05:59:26;18.70;99.90
28835;DHT22;15969;51.536;11.884;2022-08-03T06:01:52;18.80;99.90
28835;DHT22;15969;51.536;11.884;2022-08-03T06:04:17;18.90;99.90
28835;DHT22;15969;51.536;11.884;2022-08-03T06:06:43;19.00;99.90
28835;DHT22;15969;51.536;11.884;2022-08-03T06:09:09;19.10;99.90
28835;DHT22;15969;51.536;11.884;2022-08-03T06:11:35;19.20;99.90
28835;DHT22;15969;51.536;11.884;2022-08-03T06:14:02;19.30;99.90
28835;DHT22;15969;51.536;11.884;2022-08-03T06:16:27;19.40;99.90
28835;DHT22;15969;51.536;11.884;2022-08-03T06:18:53;19.50;99.90
28835;DHT22;15969;51.536;11.884;2022-08-03T06:21:19;19.60;99.70
28835;DHT22;15969;51.536;11.884;2022-08-03T06:23:45;19.70;99.90
28835;DHT22;15969;51.536;11.884;2022-08-03T06:26:11;19.80;99.90
28835;DHT22;15969;51.536;11.884;2022-08-03T06:28:37;20.00;99.90
28835;DHT22;15969;51.536;11.884;2022-08-03T06:31:03;20.10;99.80
28835;DHT22;15969;51.536;11.884;2022-08-03T06:33:29;20.20;99.50
28835;DHT22;15969;51.536;11.884;2022-08-03T06:35:54;20.30;99.10
28835;DHT22;15969;51.536;11.884;2022-08-03T06:38:20;20.40;98.90
28835;DHT22;15969;51.536;11.884;2022-08-03T06:40:46;20.50;97.80
28835;DHT22;15969;51.536;11.884;2022-08-03T06:43:12;20.60;97.80
28835;DHT22;15969;51.536;11.884;2022-08-03T06:45:39;20.80;98.00
28835;DHT22;15969;51.536;11.884;2022-08-03T06:48:07;20.90;98.80
28835;DHT22;15969;51.536;11.884;2022-08-03T06:50:36;21.00;97.50
28835;DHT22;15969;51.536;11.884;2022-08-03T06:53:04;21.10;95.80
28835;DHT22;15969;51.536;11.884;2022-08-03T06:55:30;21.30;95.20
28835;DHT22;15969;51.536;11.884;2022-08-03T06:57:56;21.50;93.30
28835;DHT22;15969;51.536;11.884;2022-08-03T07:00:22;21.60;92.80
28835;DHT22;15969;51.536;11.884;2022-08-03T07:02:48;21.80;91.40
28835;DHT22;15969;51.536;11.884;2022-08-03T07:05:14;22.00;90.40
28835;DHT22;15969;51.536;11.884;2022-08-03T07:07:40;22.10;89.30
28835;DHT22;15969;51.536;11.884;2022-08-03T07:10:07;22.20;87.80
28835;DHT22;15969;51.536;11.884;2022-08-03T07:12:33;22.40;84.40
28835;DHT22;15969;51.536;11.884;2022-08-03T07:15:01;22.60;84.40
28835;DHT22;15969;51.536;11.884;2022-08-03T07:17:28;22.70;85.10
28835;DHT22;15969;51.536;11.884;2022-08-03T07:19:55;22.80;84.00
28835;DHT22;15969;51.536;11.884;2022-08-03T07:22:21;22.90;81.80
28835;DHT22;15969;51.536;11.884;2022-08-03T07:24:46;23.10;79.40
28835;DHT22;15969;51.536;11.884;2022-08-03T07:27:12;23.20;79.20
28835;DHT22;15969;51.536;11.884;2022-08-03T07:29:38;23.30;79.70
28835;DHT22;15969;51.536;11.884;2022-08-03T07:32:04;23.40;78.20
28835;DHT22;15969;51.536;11.884;2022-08-03T07:34:30;23.50;77.20
28835;DHT22;15969;51.536;11.884;2022-08-03T07:36:56;23.60;77.40
28835;DHT22;15969;51.536;11.884;2022-08-03T07:39:22;23.80;77.60
28835;DHT22;15969;51.536;11.884;2022-08-03T07:41:48;23.90;77.70
28835;DHT22;15969;51.536;11.884;2022-08-03T07:44:20;24.00;77.20
28835;DHT22;15969;51.536;11.884;2022-08-03T07:46:46;24.10;76.50
28835;DHT22;15969;51.536;11.884;2022-08-03T07:49:12;24.20;76.10
28835;DHT22;15969;51.536;11.884;2022-08-03T07:51:39;24.30;76.00
28835;DHT22;15969;51.536;11.884;2022-08-03T07:54:04;24.40;76.30
28835;DHT22;15969;51.536;11.884;2022-08-03T07:56:30;24.50;76.80
28835;DHT22;15969;51.536;11.884;2022-08-03T07:58:56;24.60;77.00
28835;DHT22;15969;51.536;11.884;2022-08-03T08:01:22;24.70;75.90
28835;DHT22;15969;51.536;11.884;2022-08-03T08:03:48;24.90;75.50
28835;DHT22;15969;51.536;11.884;2022-08-03T08:06:15;25.00;75.60
28835;DHT22;15969;51.536;11.884;2022-08-03T08:08:42;25.10;74.40
28835;DHT22;15969;51.536;11.884;2022-08-03T08:11:08;25.20;74.50
28835;DHT22;15969;51.536;11.884;2022-08-03T08:13:33;25.30;72.40
28835;DHT22;15969;51.536;11.884;2022-08-03T08:15:59;25.50;72.30
28835;DHT22;15969;51.536;11.884;2022-08-03T08:18:25;25.60;73.10
28835;DHT22;15969;51.536;11.884;2022-08-03T08:20:54;25.70;70.70
28835;DHT22;15969;51.536;11.884;2022-08-03T08:23:20;25.90;70.70
28835;DHT22;15969;51.536;11.884;2022-08-03T08:25:50;26.00;68.40
28835;DHT22;15969;51.536;11.884;2022-08-03T08:28:17;26.10;69.00
28835;DHT22;15969;51.536;11.884;2022-08-03T08:30:44;26.10;68.10
28835;DHT22;15969;51.536;11.884;2022-08-03T08:33:10;26.30;67.20
28835;DHT22;15969;51.536;11.884;2022-08-03T08:35:35;26.30;66.30
28835;DHT22;15969;51.536;11.884;2022-08-03T08:40:27;26.50;64.40
28835;DHT22;15969;51.536;11.884;2022-08-03T08:42:53;26.50;62.90
28835;DHT22;15969;51.536;11.884;2022-08-03T08:45:19;26.70;63.30
28835;DHT22;15969;51.536;11.884;2022-08-03T08:50:18;26.90;64.50
28835;DHT22;15969;51.536;11.884;2022-08-03T08:52:46;27.00;63.20
28835;DHT22;15969;51.536;11.884;2022-08-03T08:55:19;27.10;62.00
28835;DHT22;15969;51.536;11.884;2022-08-03T08:57:54;27.20;61.20
28835;DHT22;15969;51.536;11.884;2022-08-03T09:00:23;27.30;62.00
28835;DHT22;15969;51.536;11.884;2022-08-03T09:02:49;27.30;60.30
28835;DHT22;15969;51.536;11.884;2022-08-03T09:05:18;27.40;60.10
28835;DHT22;15969;51.536;11.884;2022-08-03T09:07:46;27.40;59.10
28835;DHT22;15969;51.536;11.884;2022-08-03T09:10:14;27.50;60.10
28835;DHT22;15969;51.536;11.884;2022-08-03T09:12:50;27.60;60.30
28835;DHT22;15969;51.536;11.884;2022-08-03T09:15:26;27.60;61.00
28835;DHT22;15969;51.536;11.884;2022-08-03T09:17:55;27.70;61.70
28835;DHT22;15969;51.536;11.884;2022-08-03T09:20:25;27.80;59.10
28835;DHT22;15969;51.536;11.884;2022-08-03T09:22:57;27.80;60.90
28835;DHT22;15969;51.536;11.884;2022-08-03T09:25:38;27.90;59.80
28835;DHT22;15969;51.536;11.884;2022-08-03T09:28:11;28.00;59.60
28835;DHT22;15969;51.536;11.884;2022-08-03T09:30:43;28.10;59.10
28835;DHT22;15969;51.536;11.884;2022-08-03T09:33:11;28.10;60.00
28835;DHT22;15969;51.536;11.884;2022-08-03T09:35:48;28.20;59.60
28835;DHT22;15969;51.536;11.884;2022-08-03T09:38:18;28.30;58.00
28835;DHT22;15969;51.536;11.884;2022-08-03T09:40:49;28.40;58.80
28835;DHT22;15969;51.536;11.884;2022-08-03T09:43:15;28.50;58.60
28835;DHT22;15969;51.536;11.884;2022-08-03T09:45:42;28.60;58.90
28835;DHT22;15969;51.536;11.884;2022-08-03T09:48:30;28.70;59.10
28835;DHT22;15969;51.536;11.884;2022-08-03T09:51:00;28.70;57.60
28835;DHT22;15969;51.536;11.884;2022-08-03T09:53:28;28.80;56.70
28835;DHT22;15969;51.536;11.884;2022-08-03T09:55:56;28.80;57.50
28835;DHT22;15969;51.536;11.884;2022-08-03T09:58:25;28.90;56.80
28835;DHT22;15969;51.536;11.884;2022-08-03T10:01:00;28.90;56.40
28835;DHT22;15969;51.536;11.884;2022-08-03T10:03:30;29.00;57.40
28835;DHT22;15969;51.536;11.884;2022-08-03T10:05:57;29.10;56.50
28835;DHT22;15969;51.536;11.884;2022-08-03T10:08:24;29.10;56.10
28835;DHT22;15969;51.536;11.884;2022-08-03T10:10:51;29.10;55.80
28835;DHT22;15969;51.536;11.884;2022-08-03T10:13:21;29.20;55.80
28835;DHT22;15969;51.536;11.884;2022-08-03T10:15:47;29.20;56.90
28835;DHT22;15969;51.536;11.884;2022-08-03T10:18:13;29.30;56.60
28835;DHT22;15969;51.536;11.884;2022-08-03T10:20:45;29.40;57.50
28835;DHT22;15969;51.536;11.884;2022-08-03T10:23:16;29.50;56.60
28835;DHT22;15969;51.536;11.884;2022-08-03T10:25:43;29.60;56.90
28835;DHT22;15969;51.536;11.884;2022-08-03T10:28:14;29.70;56.80
28835;DHT22;15969;51.536;11.884;2022-08-03T10:30:43;29.70;55.50
28835;DHT22;15969;51.536;11.884;2022-08-03T10:33:27;29.80;55.70
28835;DHT22;15969;51.536;11.884;2022-08-03T10:35:57;29.90;54.70
28835;DHT22;15969;51.536;11.884;2022-08-03T10:38:28;30.10;55.80
28835;DHT22;15969;51.536;11.884;2022-08-03T10:40:58;30.20;55.50
28835;DHT22;15969;51.536;11.884;2022-08-03T10:43:27;30.20;55.50
28835;DHT22;15969;51.536;11.884;2022-08-03T10:46:02;30.20;53.90
28835;DHT22;15969;51.536;11.884;2022-08-03T10:48:30;30.20;54.10
28835;DHT22;15969;51.536;11.884;2022-08-03T10:50:56;30.30;54.60
28835;DHT22;15969;51.536;11.884;2022-08-03T10:53:41;30.40;53.40
28835;DHT22;15969;51.536;11.884;2022-08-03T10:56:37;30.50;54.20
28835;DHT22;15969;51.536;11.884;2022-08-03T11:02:09;30.60;52.30
28835;DHT22;15969;51.536;11.884;2022-08-03T11:04:36;30.60;52.60
28835;DHT22;15969;51.536;11.884;2022-08-03T11:07:19;30.60;52.80
28835;DHT22;15969;51.536;11.884;2022-08-03T11:09:52;30.60;51.90
28835;DHT22;15969;51.536;11.884;2022-08-03T11:12:30;30.70;51.70
28835;DHT22;15969;51.536;11.884;2022-08-03T11:15:06;30.80;52.00
28835;DHT22;15969;51.536;11.884;2022-08-03T11:17:33;30.80;51.00
28835;DHT22;15969;51.536;11.884;2022-08-03T11:19:59;30.80;51.00
28835;DHT22;15969;51.536;11.884;2022-08-03T11:22:49;30.90;51.10
28835;DHT22;15969;51.536;11.884;2022-08-03T11:25:18;31.00;51.40
28835;DHT22;15969;51.536;11.884;2022-08-03T11:27:44;31.10;52.20
28835;DHT22;15969;51.536;11.884;2022-08-03T11:35:13;31.30;50.80
28835;DHT22;15969;51.536;11.884;2022-08-03T11:38:03;31.30;49.70
28835;DHT22;15969;51.536;11.884;2022-08-03T11:40:35;31.40;49.50
28835;DHT22;15969;51.536;11.884;2022-08-03T11:43:04;31.40;50.20
28835;DHT22;15969;51.536;11.884;2022-08-03T11:48:41;31.60;49.80
28835;DHT22;15969;51.536;11.884;2022-08-03T11:51:19;31.70;48.30
28835;DHT22;15969;51.536;11.884;2022-08-03T11:53:45;31.80;49.00
28835;DHT22;15969;51.536;11.884;2022-08-03T11:56:12;31.90;48.70
28835;DHT22;15969;51.536;11.884;2022-08-03T11:58:45;32.00;49.60
28835;DHT22;15969;51.536;11.884;2022-08-03T12:01:17;32.10;48.40
28835;DHT22;15969;51.536;11.884;2022-08-03T12:03:43;32.10;49.60
28835;DHT22;15969;51.536;11.884;2022-08-03T12:06:10;32.10;47.50
28835;DHT22;15969;51.536;11.884;2022-08-03T12:08:37;32.20;48.30
28835;DHT22;15969;51.536;11.884;2022-08-03T12:11:04;32.30;48.80
28835;DHT22;15969;51.536;11.884;2022-08-03T12:13:45;32.30;48.40
28835;DHT22;15969;51.536;11.884;2022-08-03T12:16:22;32.40;48.40
28835;DHT22;15969;51.536;11.884;2022-08-03T12:19:00;32.40;48.80
28835;DHT22;15969;51.536;11.884;2022-08-03T12:21:28;32.60;48.00
28835;DHT22;15969;51.536;11.884;2022-08-03T12:24:03;32.60;47.60
28835;DHT22;15969;51.536;11.884;2022-08-03T12:26:47;32.70;47.60
28835;DHT22;15969;51.536;11.884;2022-08-03T12:29:18;32.80;48.40
28835;DHT22;15969;51.536;11.884;2022-08-03T12:31:46;32.90;48.30
28835;DHT22;15969;51.536;11.884;2022-08-03T12:34:11;32.90;48.30
28835;DHT22;15969;51.536;11.884;2022-08-03T12:36:48;33.00;46.60
28835;DHT22;15969;51.536;11.884;2022-08-03T12:39:15;33.00;47.10
28835;DHT22;15969;51.536;11.884;2022-08-03T12:41:41;33.10;47.60
28835;DHT22;15969;51.536;11.884;2022-08-03T12:44:08;33.20;47.00
28835;DHT22;15969;51.536;11.884;2022-08-03T12:46:39;33.40;48.20
28835;DHT22;15969;51.536;11.884;2022-08-03T12:49:10;33.40;47.00
28835;DHT22;15969;51.536;11.884;2022-08-03T12:54:29;33.60;47.90
28835;DHT22;15969;51.536;11.884;2022-08-03T12:57:00;33.80;47.30
28835;DHT22;15969;51.536;11.884;2022-08-03T12:59:29;33.90;46.50
28835;DHT22;15969;51.536;11.884;2022-08-03T13:01:56;34.00;46.40
28835;DHT22;15969;51.536;11.884;2022-08-03T13:04:33;34.00;47.20
28835;DHT22;15969;51.536;11.884;2022-08-03T13:07:01;34.10;46.60
28835;DHT22;15969;51.536;11.884;2022-08-03T13:09:29;34.20;46.10
28835;DHT22;15969;51.536;11.884;2022-08-03T13:12:07;34.20;45.20
28835;DHT22;15969;51.536;11.884;2022-08-03T13:14:35;34.30;45.20
28835;DHT22;15969;51.536;11.884;2022-08-03T13:17:01;34.30;45.40
28835;DHT22;15969;51.536;11.884;2022-08-03T13:19:26;34.50;45.40
28835;DHT22;15969;51.536;11.884;2022-08-03T13:21:52;34.50;44.70
28835;DHT22;15969;51.536;11.884;2022-08-03T13:24:18;34.70;45.60
28835;DHT22;15969;51.536;11.884;2022-08-03T13:26:44;34.80;45.10
28835;DHT22;15969;51.536;11.884;2022-08-03T13:29:09;34.80;45.70
28835;DHT22;15969;51.536;11.884;2022-08-03T13:31:35;35.00;44.00
28835;DHT22;15969;51.536;11.884;2022-08-03T13:34:01;35.10;44.20
28835;DHT22;15969;51.536;11.884;2022-08-03T13:36:26;35.10;44.00
28835;DHT22;15969;51.536;11.884;2022-08-03T13:38:52;35.10;44.40
28835;DHT22;15969;51.536;11.884;2022-08-03T13:41:18;35.20;43.10
28835;DHT22;15969;51.536;11.884;2022-08-03T13:43:43;35.30;43.70
28835;DHT22;15969;51.536;11.884;2022-08-03T13:46:09;35.40;43.40
28835;DHT22;15969;51.536;11.884;2022-08-03T13:48:35;35.50;43.80
28835;DHT22;15969;51.536;11.884;2022-08-03T13:51:01;35.40;43.00
28835;DHT22;15969;51.536;11.884;2022-08-03T13:53:26;35.50;43.00
28835;DHT22;15969;51.536;11.884;2022-08-03T13:55:52;35.60;42.60
28835;DHT22;15969;51.536;11.884;2022-08-03T13:58:18;35.70;43.70
28835;DHT22;15969;51.536;11.884;2022-08-03T14:00:43;35.80;42.90
28835;DHT22;15969;51.536;11.884;2022-08-03T14:03:09;35.90;42.60
28835;DHT22;15969;51.536;11.884;2022-08-03T14:05:35;36.10;42.60
28835;DHT22;15969;51.536;11.884;2022-08-03T14:08:03;36.20;42.20
28835;DHT22;15969;51.536;11.884;2022-08-03T14:10:42;36.30;43.00
28835;DHT22;15969;51.536;11.884;2022-08-03T14:13:10;36.40;41.30
28835;DHT22;15969;51.536;11.884;2022-08-03T14:15:36;36.50;42.40
28835;DHT22;15969;51.536;11.884;2022-08-03T14:18:02;36.60;42.50
28835;DHT22;15969;51.536;11.884;2022-08-03T14:20:27;36.50;41.40
28835;DHT22;15969;51.536;11.884;2022-08-03T14:22:53;36.50;42.30
28835;DHT22;15969;51.536;11.884;2022-08-03T14:25:19;36.50;42.10
28835;DHT22;15969;51.536;11.884;2022-08-03T14:27:45;36.50;42.70
28835;DHT22;15969;51.536;11.884;2022-08-03T14:30:11;36.50;41.30
28835;DHT22;15969;51.536;11.884;2022-08-03T14:32:37;36.50;42.00
28835;DHT22;15969;51.536;11.884;2022-08-03T14:35:03;36.50;42.20
28835;DHT22;15969;51.536;11.884;2022-08-03T14:37:29;36.60;42.20
28835;DHT22;15969;51.536;11.884;2022-08-03T14:39:56;36.50;41.80
28835;DHT22;15969;51.536;11.884;2022-08-03T14:42:21;36.80;41.40
28835;DHT22;15969;51.536;11.884;2022-08-03T14:44:47;37.10;41.60
28835;DHT22;15969;51.536;11.884;2022-08-03T14:47:13;37.70;40.40
28835;DHT22;15969;51.536;11.884;2022-08-03T14:49:39;40.40;37.30
28835;DHT22;15969;51.536;11.884;2022-08-03T14:52:05;43.20;36.00
28835;DHT22;15969;51.536;11.884;2022-08-03T14:54:32;45.60;33.70
28835;DHT22;15969;51.536;11.884;2022-08-03T14:56:57;47.70;31.70
28835;DHT22;15969;51.536;11.884;2022-08-03T14:59:24;49.20;30.50
28835;DHT22;15969;51.536;11.884;2022-08-03T15:01:50;50.30;30.60
28835;DHT22;15969;51.536;11.884;2022-08-03T15:04:16;51.70;29.30
28835;DHT22;15969;51.536;11.884;2022-08-03T15:06:41;53.00;28.10
28835;DHT22;15969;51.536;11.884;2022-08-03T15:09:07;53.50;27.70
28835;DHT22;15969;51.536;11.884;2022-08-03T15:11:33;55.00;27.60
28835;DHT22;15969;51.536;11.884;2022-08-03T15:13:59;55.30;27.10
28835;DHT22;15969;51.536;11.884;2022-08-03T15:16:24;56.00;26.30
28835;DHT22;15969;51.536;11.884;2022-08-03T15:18:50;56.60;26.10
28835;DHT22;15969;51.536;11.884;2022-08-03T15:21:16;57.30;25.80
28835;DHT22;15969;51.536;11.884;2022-08-03T15:23:41;57.50;25.50
28835;DHT22;15969;51.536;11.884;2022-08-03T15:26:07;57.90;24.50
28835;DHT22;15969;51.536;11.884;2022-08-03T15:28:33;57.90;24.80
28835;DHT22;15969;51.536;11.884;2022-08-03T15:30:59;58.60;24.30
28835;DHT22;15969;51.536;11.884;2022-08-03T15:33:25;59.20;24.00
28835;DHT22;15969;51.536;11.884;2022-08-03T15:35:51;59.80;23.70
28835;DHT22;15969;51.536;11.884;2022-08-03T15:38:17;58.10;23.60
28835;DHT22;15969;51.536;11.884;2022-08-03T15:40:44;56.80;23.90
28835;DHT22;15969;51.536;11.884;2022-08-03T15:43:10;57.30;24.30
28835;DHT22;15969;51.536;11.884;2022-08-03T15:45:35;58.00;24.00
28835;DHT22;15969;51.536;11.884;2022-08-03T15:48:01;58.70;24.00
28835;DHT22;15969;51.536;11.884;2022-08-03T15:50:28;59.30;23.50
28835;DHT22;15969;51.536;11.884;2022-08-03T15:52:55;57.20;23.70
28835;DHT22;15969;51.536;11.884;2022-08-03T15:55:21;54.20;24.00